createdAt,value
2024-05-09T00:00:52.318Z,100994.91
2024-05-09T00:03:21.775Z,101000.34
2024-05-09T00:05:51.212Z,100994.25
2024-05-09T00:08:20.621Z,100999.69
2024-05-09T00:10:50.217Z,100998.84
2024-05-09T00:13:19.632Z,100998.94
2024-05-09T00:15:48.960Z,101001.59
2024-05-09T00:18:15.913Z,100996.38
2024-05-09T00:20:45.498Z,100997.31
2024-05-09T00:23:14.913Z,100999.13
2024-05-09T00:25:44.653Z,101004.44
2024-05-09T00:28:14.445Z,100990.38
2024-05-09T00:30:43.776Z,100986.09
2024-05-09T00:33:13.864Z,100992.50
2024-05-09T00:35:43.773Z,100990.22
2024-05-09T00:38:13.295Z,100993.38
2024-05-09T00:40:43.699Z,100993.91
2024-05-09T00:43:14.502Z,101005.03
2024-05-09T00:45:44.602Z,100992.09
2024-05-09T00:48:16.444Z,100999.53
2024-05-09T00:50:49.050Z,100987.47
2024-05-09T00:53:18.778Z,100994.81
2024-05-09T00:55:48.290Z,100992.41
2024-05-09T00:58:17.697Z,100990.03
2024-05-09T01:00:47.164Z,100989.28
2024-05-09T01:03:16.631Z,100992.16
2024-05-09T01:05:46.175Z,100988.72
2024-05-09T01:08:15.618Z,100989.66
2024-05-09T01:10:46.174Z,100992.53
2024-05-09T01:13:17.497Z,100990.91
2024-05-09T01:15:48.175Z,100990.25
2024-05-09T01:18:17.692Z,100993.00
2024-05-09T01:20:47.261Z,100994.06
2024-05-09T01:23:16.877Z,100993.28
2024-05-09T01:25:46.964Z,100982.84
2024-05-09T01:28:16.694Z,100991.13
2024-05-09T01:30:46.028Z,100993.09
2024-05-09T01:33:15.500Z,100992.34
2024-05-09T01:35:45.316Z,100990.72
2024-05-09T01:38:17.535Z,100989.88
2024-05-09T01:40:47.103Z,100996.22
2024-05-09T01:43:16.503Z,100991.84
2024-05-09T01:45:45.831Z,100989.41
2024-05-09T01:48:15.401Z,100986.22
2024-05-09T01:50:44.926Z,100987.47
2024-05-09T01:53:15.148Z,100986.97
2024-05-09T01:55:44.920Z,100983.63
2024-05-09T01:58:14.324Z,100984.75
2024-05-09T02:00:43.904Z,100985.81
2024-05-09T02:03:16.167Z,100986.84
2024-05-09T02:05:47.717Z,100978.09
2024-05-09T02:08:18.245Z,100986.94
2024-05-09T02:10:48.217Z,100984.28
2024-05-09T02:13:17.760Z,100983.31
2024-05-09T02:15:47.151Z,100982.56
2024-05-09T02:18:16.647Z,100980.84
2024-05-09T02:20:46.151Z,100973.81
2024-05-09T02:23:15.728Z,100988.03
2024-05-09T02:25:45.158Z,100980.19
2024-05-09T02:28:14.507Z,100983.97
2024-05-09T02:30:43.907Z,100988.78
2024-05-09T02:33:14.438Z,100981.94
2024-05-09T02:35:44.512Z,100983.00
2024-05-09T02:38:11.432Z,100987.63
2024-05-09T02:40:41.024Z,100978.88
2024-05-09T02:43:08.277Z,100977.16
2024-05-09T02:45:38.503Z,100978.19
2024-05-09T02:48:05.363Z,100984.47
2024-05-09T02:50:39.071Z,100985.50
2024-05-09T02:53:06.888Z,100982.00
2024-05-09T02:55:36.258Z,100981.13
2024-05-09T02:58:02.961Z,100981.31
2024-05-09T03:00:38.544Z,100984.06
2024-05-09T03:03:09.063Z,100985.09
2024-05-09T03:05:40.069Z,100987.06
2024-05-09T03:08:07.159Z,100978.34
2024-05-09T03:10:38.527Z,100980.16
2024-05-09T03:13:06.101Z,100984.59
2024-05-09T03:15:35.434Z,100984.78
2024-05-09T03:18:02.399Z,100980.50
2024-05-09T03:20:34.907Z,100976.22
2024-05-09T03:23:06.005Z,100977.25
2024-05-09T03:25:33.101Z,100978.28
2024-05-09T03:28:02.559Z,100981.19
2024-05-09T03:30:36.292Z,100982.34
2024-05-09T03:33:11.235Z,100986.84
2024-05-09T03:35:38.249Z,100988.81
2024-05-09T03:38:07.611Z,100988.94
2024-05-09T03:40:37.072Z,100992.53
2024-05-09T03:43:06.399Z,100988.06
2024-05-09T03:45:35.806Z,100984.56
2024-05-09T03:48:02.704Z,100985.47
2024-05-09T03:50:35.567Z,100991.75
2024-05-09T03:53:03.502Z,100991.75
2024-05-09T03:55:32.951Z,100993.72
2024-05-09T03:57:59.845Z,100988.59
2024-05-09T04:00:36.915Z,100989.69
2024-05-09T04:03:07.286Z,100986.34
2024-05-09T04:05:40.017Z,100992.59
2024-05-09T04:08:07.464Z,100984.81
2024-05-09T04:10:36.927Z,100992.03
2024-05-09T04:13:04.166Z,100984.06
2024-05-09T04:15:33.797Z,100989.38
2024-05-09T04:18:01.306Z,100993.81
2024-05-09T04:20:38.089Z,100989.38
2024-05-09T04:23:08.253Z,100994.69
2024-05-09T04:25:38.473Z,100992.88
2024-05-09T04:28:05.311Z,100995.44
2024-05-09T04:30:39.017Z,100986.34
2024-05-09T04:33:10.293Z,100986.97
2024-05-09T04:35:42.301Z,100987.47
2024-05-09T04:38:09.550Z,100983.63
2024-05-09T04:40:38.925Z,100985.81
2024-05-09T04:43:05.933Z,100984.47
2024-05-09T04:45:35.910Z,100988.38
2024-05-09T04:48:03.090Z,100987.00
2024-05-09T04:50:37.037Z,100992.72
2024-05-09T04:53:06.228Z,100993.03
2024-05-09T04:55:37.788Z,100995.06
2024-05-09T04:58:05.113Z,100995.28
2024-05-09T05:00:37.212Z,100989.22
2024-05-09T05:03:07.446Z,100989.38
2024-05-09T05:05:37.885Z,100995.66
2024-05-09T05:08:04.903Z,101000.44
2024-05-09T05:10:36.545Z,100989.13
2024-05-09T05:13:17.681Z,100999.94
2024-05-09T05:15:47.972Z,100992.81
2024-05-09T05:18:15.219Z,100989.47
2024-05-09T05:20:44.826Z,100988.03
2024-05-09T05:23:11.830Z,100986.69
2024-05-09T05:25:41.240Z,100988.94
2024-05-09T05:28:08.047Z,100981.41
2024-05-09T05:30:37.800Z,100986.25
2024-05-09T05:33:04.728Z,100991.72
2024-05-09T05:35:34.935Z,100986.56
2024-05-09T05:38:01.902Z,100983.06
2024-05-09T05:40:36.428Z,100984.94
2024-05-09T05:43:04.913Z,100984.25
2024-05-09T05:45:34.271Z,100985.31
2024-05-09T05:48:01.153Z,100982.91
2024-05-09T05:50:35.855Z,100983.13
2024-05-09T05:53:04.513Z,100981.53
2024-05-09T05:55:34.126Z,100987.09
2024-05-09T05:58:00.829Z,100986.34
2024-05-09T06:00:37.679Z,100984.97
2024-05-09T06:03:06.685Z,100989.09
2024-05-09T06:05:36.207Z,100979.94
2024-05-09T06:08:03.023Z,100982.38
2024-05-09T06:10:38.163Z,100987.19
2024-05-09T06:13:07.031Z,100979.59
2024-05-09T06:15:36.456Z,100978.19
2024-05-09T06:18:03.291Z,100980.53
2024-05-09T06:20:36.449Z,100980.28
2024-05-09T06:23:05.120Z,100977.94
2024-05-09T06:25:34.717Z,100979.09
2024-05-09T06:28:01.537Z,100974.81
2024-05-09T06:30:38.595Z,100977.44
2024-05-09T06:33:08.520Z,100977.75
2024-05-09T06:35:39.104Z,100976.53
2024-05-09T06:38:06.011Z,100976.94
2024-05-09T06:40:38.543Z,100976.28
2024-05-09T06:43:06.873Z,100972.03
2024-05-09T06:45:37.174Z,100974.38
2024-05-09T06:48:04.253Z,100973.81
2024-05-09T06:50:37.638Z,100972.13
2024-05-09T06:53:06.066Z,100976.03
2024-05-09T06:55:35.615Z,100973.41
2024-05-09T06:58:02.315Z,100976.97
2024-05-09T07:00:38.561Z,100972.72
2024-05-09T07:03:07.824Z,100977.91
2024-05-09T07:05:37.469Z,100984.22
2024-05-09T07:08:04.393Z,100979.28
2024-05-09T07:10:35.549Z,100985.09
2024-05-09T07:13:03.139Z,100972.91
2024-05-09T07:15:32.516Z,100982.94
2024-05-09T07:17:59.358Z,100980.25
2024-05-09T07:20:34.428Z,100981.19
2024-05-09T07:23:02.050Z,100986.31
2024-05-09T07:25:31.705Z,100973.72
2024-05-09T07:27:58.535Z,100970.78
2024-05-09T07:30:33.284Z,100971.38
2024-05-09T07:33:02.264Z,100963.03
2024-05-09T07:35:32.570Z,100968.09
2024-05-09T07:37:59.549Z,100968.78
2024-05-09T07:40:35.440Z,100962.22
2024-05-09T07:43:03.733Z,100972.53
2024-05-09T07:52:23.989Z,100962.03
2024-05-09T07:53:39.110Z,100962.94
2024-05-09T07:56:12.253Z,100962.00
2024-05-09T07:58:39.351Z,100959.34
2024-05-09T08:01:08.975Z,100959.50
2024-05-09T08:03:35.867Z,100957.56
2024-05-09T08:06:05.335Z,100964.94
2024-05-09T08:08:32.111Z,100950.69
2024-05-09T08:11:01.655Z,100958.03
2024-05-09T08:13:28.379Z,100957.50
2024-05-09T08:15:57.915Z,100959.47
2024-05-09T08:18:25.281Z,100951.56
2024-05-09T08:20:54.690Z,100954.28
2024-05-09T08:23:21.423Z,100959.56
2024-05-09T08:25:50.951Z,100952.19
2024-05-09T08:28:17.845Z,100954.72
2024-05-09T08:30:47.641Z,100952.72
2024-05-09T08:33:14.918Z,100950.72
2024-05-09T08:35:44.426Z,100954.84
2024-05-09T08:38:11.226Z,100951.94
2024-05-09T08:40:41.311Z,100952.97
2024-05-09T08:43:08.368Z,100955.78
2024-05-09T08:45:39.142Z,100956.59
2024-05-09T08:48:07.871Z,100959.38
2024-05-09T08:50:39.498Z,100959.34
2024-05-09T08:53:06.976Z,100946.53
2024-05-09T08:55:40.283Z,100957.81
2024-05-09T08:58:09.740Z,100947.50
2024-05-09T09:00:39.514Z,100940.03
2024-05-09T09:03:06.517Z,100943.25
2024-05-09T09:05:36.356Z,100934.22
2024-05-09T09:08:03.243Z,100936.72
2024-05-09T09:10:33.422Z,100938.00
2024-05-09T09:13:00.890Z,100939.16
2024-05-09T09:15:30.628Z,100936.19
2024-05-09T09:17:58.248Z,100934.25
2024-05-09T09:20:35.665Z,100929.47
2024-05-09T09:23:04.630Z,100933.44
2024-05-09T09:25:34.338Z,100936.88
2024-05-09T09:28:01.137Z,100932.75
2024-05-09T09:30:36.736Z,100934.47
2024-05-09T09:33:05.509Z,100930.50
2024-05-09T09:35:36.004Z,100928.16
2024-05-09T09:38:03.196Z,100924.19
2024-05-09T09:40:34.944Z,100929.81
2024-05-09T09:43:04.257Z,100934.28
2024-05-09T09:45:33.991Z,100922.50
2024-05-09T09:48:00.989Z,100933.31
2024-05-09T09:50:34.467Z,100923.75
2024-05-09T09:53:01.974Z,100923.84
2024-05-09T09:55:31.515Z,100905.84
2024-05-09T09:57:58.386Z,100914.31
2024-05-09T10:00:32.784Z,100903.28
2024-05-09T10:03:01.603Z,100906.06
2024-05-09T10:05:32.133Z,100905.84
2024-05-09T10:07:59.043Z,100899.13
2024-05-09T10:10:32.448Z,100895.88
2024-05-09T10:13:00.337Z,100906.63
2024-05-09T10:15:30.202Z,100902.22
2024-05-09T10:17:57.094Z,100899.41
2024-05-09T10:20:30.899Z,100895.28
2024-05-09T10:22:59.452Z,100899.38
2024-05-09T10:25:29.014Z,100887.88
2024-05-09T10:27:56.012Z,100885.59
2024-05-09T10:30:34.003Z,100890.28
2024-05-09T10:33:03.221Z,100882.66
2024-05-09T10:35:32.940Z,100889.59
2024-05-09T10:37:59.642Z,100881.91
2024-05-09T10:40:31.512Z,100871.50
2024-05-09T10:43:00.501Z,100873.19
2024-05-09T10:45:32.109Z,100875.72
2024-05-09T10:47:59.159Z,100872.91
2024-05-09T10:50:32.078Z,100862.09
2024-05-09T10:53:01.038Z,100865.78
2024-05-09T10:55:30.709Z,100868.53
2024-05-09T10:57:57.639Z,100858.34
2024-05-09T11:00:33.050Z,100855.41
2024-05-09T11:03:02.557Z,100860.38
2024-05-09T11:05:34.104Z,100858.50
2024-05-09T11:08:01.024Z,100850.31
2024-05-09T11:10:33.982Z,100852.97
2024-05-09T11:13:01.423Z,100853.28
2024-05-09T11:15:31.073Z,100842.94
2024-05-09T11:17:58.115Z,100850.53
2024-05-09T11:20:29.935Z,100838.25
2024-05-09T11:22:57.137Z,100839.84
2024-05-09T11:25:27.032Z,100842.56
2024-05-09T11:27:53.946Z,100833.81
2024-05-09T11:30:29.806Z,100838.25
2024-05-09T11:32:59.074Z,100839.56
2024-05-09T11:35:29.554Z,100831.13
2024-05-09T11:37:56.342Z,100825.75
2024-05-09T11:40:32.248Z,100829.28
2024-05-09T11:43:01.300Z,100824.97
2024-05-09T11:45:30.884Z,100826.25
2024-05-09T11:47:57.907Z,100817.88
2024-05-09T11:50:32.831Z,100814.72
2024-05-09T11:53:02.455Z,100811.81
2024-05-09T11:55:36.489Z,100807.56
2024-05-09T11:58:03.673Z,100809.03
2024-05-09T12:00:37.188Z,100804.44
2024-05-09T12:03:05.601Z,100803.84
2024-05-09T12:05:35.723Z,100793.75
2024-05-09T12:08:02.741Z,100792.00
2024-05-09T12:10:35.207Z,100793.19
2024-05-09T12:13:05.534Z,100791.91
2024-05-09T12:15:37.876Z,100790.31
2024-05-09T12:18:05.713Z,100786.41
2024-05-09T12:20:38.647Z,100790.28
2024-05-09T12:23:06.999Z,100786.03
2024-05-09T12:25:36.585Z,100779.50
2024-05-09T12:28:03.590Z,100780.94
2024-05-09T12:30:38.044Z,100786.28
2024-05-09T12:33:07.437Z,100785.06
2024-05-09T12:35:37.209Z,100779.38
2024-05-09T12:38:04.039Z,100776.59
2024-05-09T12:40:37.038Z,100776.94
2024-05-09T12:43:05.644Z,100771.66
2024-05-09T12:45:35.243Z,100770.63
2024-05-09T12:48:02.354Z,100771.81
2024-05-09T12:50:34.006Z,100763.69
2024-05-09T12:53:02.056Z,100765.97
2024-05-09T12:55:40.541Z,100761.66
2024-05-09T12:58:15.299Z,100756.47
2024-05-09T13:00:45.702Z,100753.78
2024-05-09T13:03:13.128Z,100744.22
2024-05-09T13:05:45.152Z,100751.28
2024-05-09T13:08:12.562Z,100741.22
2024-05-09T13:10:42.155Z,100744.56
2024-05-09T13:13:09.251Z,100750.28
2024-05-09T13:15:39.582Z,100739.97
2024-05-09T13:18:06.849Z,100738.53
2024-05-09T13:20:37.008Z,100740.59
2024-05-09T13:23:04.679Z,100730.84
2024-05-09T13:25:35.089Z,100737.56
2024-05-09T13:28:02.446Z,100726.50
2024-05-09T13:30:39.302Z,100727.44
2024-05-09T13:33:08.954Z,100729.94
2024-05-09T13:35:38.935Z,100724.53
2024-05-09T13:38:06.264Z,100724.13
2024-05-09T13:40:36.603Z,100725.81
2024-05-09T13:43:03.780Z,100721.34
2024-05-09T13:45:33.851Z,100723.38
2024-05-09T13:48:01.016Z,100726.16
2024-05-09T13:50:34.835Z,100729.91
2024-05-09T13:53:03.555Z,100722.69
2024-05-09T13:55:33.203Z,100719.66
2024-05-09T13:58:00.248Z,100724.94
2024-05-09T14:00:42.078Z,100704.81
2024-05-09T14:03:14.341Z,100707.34
2024-05-09T14:05:44.357Z,100697.03
2024-05-09T14:08:11.188Z,100697.03
2024-05-09T14:10:44.788Z,100696.19
2024-05-09T14:13:12.039Z,100690.22
2024-05-09T14:15:41.634Z,100687.47
2024-05-09T14:18:12.385Z,100694.03
2024-05-09T14:20:43.511Z,100676.75
2024-05-09T14:23:10.408Z,100681.38
2024-05-09T14:25:42.472Z,100686.34
2024-05-09T14:28:10.466Z,100689.06
2024-05-09T14:30:40.252Z,100673.19
2024-05-09T14:33:08.294Z,100679.16
2024-05-09T14:35:39.183Z,100686.44
2024-05-09T14:38:06.305Z,100681.88
2024-05-09T14:40:41.259Z,100690.06
2024-05-09T14:43:11.208Z,100669.00
2024-05-09T14:45:41.076Z,100665.88
2024-05-09T14:48:08.259Z,100668.00
2024-05-09T14:50:39.727Z,100665.44
2024-05-09T14:53:07.900Z,100659.19
2024-05-09T14:55:39.994Z,100662.53
2024-05-09T14:58:07.951Z,100658.47
2024-05-09T15:00:39.415Z,100651.81
2024-05-09T15:03:08.937Z,100655.19
2024-05-09T15:05:38.538Z,100646.91
2024-05-09T15:08:05.594Z,100638.84
2024-05-09T15:10:36.805Z,100639.47
2024-05-09T15:13:04.839Z,100642.22
2024-05-09T15:15:34.640Z,100637.66
2024-05-09T15:18:01.695Z,100635.63
2024-05-09T15:20:35.405Z,100629.00
2024-05-09T15:23:04.247Z,100637.16
2024-05-09T15:25:33.953Z,100629.97
2024-05-09T15:28:00.954Z,100628.56
2024-05-09T15:30:33.060Z,100622.47
2024-05-09T15:33:01.651Z,100625.66
2024-05-09T15:35:31.263Z,100624.31
2024-05-09T15:37:58.119Z,100629.84
2024-05-09T15:40:36.221Z,100621.53
2024-05-09T15:43:07.280Z,100615.09
2024-05-09T15:45:37.344Z,100609.88
2024-05-09T15:48:05.750Z,100619.53
2024-05-09T15:50:39.507Z,100617.16
2024-05-09T15:53:09.244Z,100616.38
2024-05-09T15:55:39.735Z,100618.50
2024-05-09T15:58:07.322Z,100623.25
2024-05-09T16:00:41.046Z,100611.34
2024-05-09T16:03:11.488Z,100612.84
2024-05-09T16:05:42.457Z,100610.03
2024-05-09T16:08:09.491Z,100608.19
2024-05-09T16:10:43.526Z,100606.94
2024-05-09T16:13:14.587Z,100600.84
2024-05-09T16:15:41.701Z,100600.44
2024-05-09T16:18:11.340Z,100598.75
2024-05-09T16:20:41.262Z,100598.88
2024-05-09T16:23:13.028Z,100600.34
2024-05-09T16:25:39.844Z,100598.44
2024-05-09T16:28:10.847Z,100604.94
2024-05-09T16:30:38.338Z,100594.66
2024-05-09T16:33:08.830Z,100594.63
2024-05-09T16:35:36.531Z,100596.25
2024-05-09T16:38:06.253Z,100599.69
2024-05-09T16:40:38.736Z,100600.00
2024-05-09T16:43:11.128Z,100602.56
2024-05-09T16:45:38.294Z,100593.72
2024-05-09T16:48:08.145Z,100600.16
2024-05-09T16:50:35.999Z,100597.56
2024-05-09T16:53:06.935Z,100599.28
2024-05-09T16:55:34.655Z,100599.97
2024-05-09T16:58:05.096Z,100592.66
2024-05-09T17:00:40.185Z,100594.19
2024-05-09T17:03:14.111Z,100586.97
2024-05-09T17:05:42.983Z,100599.84
2024-05-09T17:08:12.734Z,100595.41
2024-05-09T17:10:39.986Z,100598.97
2024-05-09T17:13:10.345Z,100592.44
2024-05-09T17:15:40.058Z,100593.91
2024-05-09T17:18:10.172Z,100594.66
2024-05-09T17:20:39.787Z,100596.09
2024-05-09T17:23:13.624Z,100596.69
2024-05-09T17:25:43.980Z,100589.16
2024-05-09T17:28:11.254Z,100592.09
2024-05-09T17:30:42.582Z,100590.44
2024-05-09T17:33:11.191Z,100587.25
2024-05-09T17:35:42.079Z,100597.28
2024-05-09T17:38:09.207Z,100588.53
2024-05-09T17:40:39.542Z,100596.84
2024-05-09T17:43:08.992Z,100595.19
2024-05-09T17:45:41.166Z,100598.75
2024-05-09T17:48:10.270Z,100597.94
2024-05-09T17:50:41.614Z,100591.53
2024-05-09T17:53:09.059Z,100599.53
2024-05-09T17:55:38.918Z,100599.69
2024-05-09T17:58:06.185Z,100594.06
2024-05-09T18:00:39.735Z,100592.06
2024-05-09T18:03:12.036Z,100594.59
2024-05-09T18:05:44.061Z,100597.31
2024-05-09T18:08:11.759Z,100595.97
2024-05-09T18:10:41.981Z,100593.78
2024-05-09T18:13:09.416Z,100596.97
2024-05-09T18:15:39.620Z,100596.81
2024-05-09T18:18:07.410Z,100593.25
2024-05-09T18:20:43.143Z,100601.34
2024-05-09T18:23:14.100Z,100594.59
2024-05-09T18:25:44.706Z,100599.13
2024-05-09T18:28:11.654Z,100596.38
2024-05-09T18:30:41.680Z,100596.50
2024-05-09T18:33:09.155Z,100596.84
2024-05-09T18:35:39.006Z,100602.22
2024-05-09T18:38:06.121Z,100603.34
2024-05-09T18:40:37.797Z,100607.19
2024-05-09T18:43:07.507Z,100605.78
2024-05-09T18:45:39.096Z,100603.53
2024-05-09T18:48:06.961Z,100601.91
2024-05-09T18:50:39.571Z,100622.78
2024-05-09T18:53:08.330Z,100613.97
2024-05-09T18:55:38.108Z,100624.00
2024-05-09T18:58:05.245Z,100620.56
2024-05-09T19:00:38.451Z,100612.53
2024-05-09T19:03:10.310Z,100624.44
2024-05-09T19:05:43.694Z,100625.53
2024-05-09T19:08:12.102Z,100629.31
2024-05-09T19:10:41.978Z,100629.34
2024-05-09T19:13:12.304Z,100631.13
2024-05-09T19:15:44.077Z,100625.63
2024-05-09T19:18:11.785Z,100633.66
2024-05-09T19:20:41.853Z,100636.25
2024-05-09T19:23:08.895Z,100630.78
2024-05-09T19:25:38.533Z,100635.22
2024-05-09T19:28:05.871Z,100639.50
2024-05-09T19:30:40.300Z,100641.94
2024-05-09T19:33:10.215Z,100648.94
2024-05-09T19:35:40.848Z,100650.53
2024-05-09T19:38:07.751Z,100654.81
2024-05-09T19:40:37.805Z,100646.31
2024-05-09T19:43:05.916Z,100645.19
2024-05-09T19:45:36.684Z,100651.03
2024-05-09T19:48:04.495Z,100653.44
2024-05-09T19:50:41.518Z,100653.06
2024-05-09T19:53:11.656Z,100656.16
2024-05-09T19:55:41.544Z,100656.59
2024-05-09T19:58:08.482Z,100655.47
2024-05-09T20:00:40.762Z,100660.47
2024-05-09T20:03:10.524Z,100658.47
2024-05-09T20:05:40.396Z,100662.59
2024-05-09T20:08:07.381Z,100664.16
2024-05-09T20:10:37.709Z,100659.50
2024-05-09T20:13:05.998Z,100664.19
2024-05-09T20:15:37.168Z,100668.84
2024-05-09T20:18:07.582Z,100669.22
2024-05-09T20:20:39.234Z,100663.13
2024-05-09T20:23:12.562Z,100671.59
2024-05-09T20:25:39.566Z,100671.84
2024-05-09T20:28:10.134Z,100673.53
2024-05-09T20:30:37.439Z,100679.72
2024-05-09T20:33:08.641Z,100675.19
2024-05-09T20:35:36.728Z,100678.66
2024-05-09T20:38:06.668Z,100673.84
2024-05-09T20:40:37.150Z,100666.44
2024-05-09T20:43:08.927Z,100673.22
2024-05-09T20:45:44.380Z,100674.56
2024-05-09T20:48:11.624Z,100677.38
2024-05-09T20:50:42.643Z,100673.00
2024-05-09T20:53:09.939Z,100666.94
2024-05-09T20:55:39.969Z,100664.66
2024-05-09T20:58:06.968Z,100671.13
2024-05-09T21:00:40.538Z,100661.91
2024-05-09T21:03:11.694Z,100663.53
2024-05-09T21:05:42.153Z,100659.09
2024-05-09T21:08:09.300Z,100664.38
2024-05-09T21:10:39.192Z,100670.53
2024-05-09T21:13:06.940Z,100671.22
2024-05-09T21:15:37.081Z,100671.00
2024-05-09T21:18:04.445Z,100662.75
2024-05-09T21:20:35.183Z,100664.97
2024-05-09T21:23:02.741Z,100663.78
2024-05-09T21:25:33.015Z,100660.91
2024-05-09T21:28:00.015Z,100668.84
2024-05-09T21:30:38.618Z,100669.56
2024-05-09T21:33:10.229Z,100675.91
2024-05-09T21:35:41.299Z,100673.88
2024-05-09T21:38:08.384Z,100684.25
2024-05-09T21:40:38.661Z,100681.69
2024-05-09T21:43:05.693Z,100678.53
2024-05-09T21:45:35.362Z,100688.78
2024-05-09T21:48:02.296Z,100681.22
2024-05-09T21:50:38.978Z,100685.84
2024-05-09T21:53:08.346Z,100683.41
2024-05-09T21:55:37.884Z,100684.41
2024-05-09T21:58:05.023Z,100682.69
2024-05-09T22:00:38.336Z,100684.41
2024-05-09T22:03:06.160Z,100685.97
2024-05-09T22:05:36.435Z,100689.63
2024-05-09T22:08:03.498Z,100689.03
2024-05-09T22:10:35.517Z,100692.91
2024-05-09T22:13:04.159Z,100697.91
2024-05-09T22:15:36.156Z,100701.94
2024-05-09T22:18:04.051Z,100694.38
2024-05-09T22:20:37.642Z,100694.50
2024-05-09T22:23:06.283Z,100690.13
2024-05-09T22:25:35.764Z,100687.81
2024-05-09T22:28:03.157Z,100689.25
2024-05-09T22:30:37.291Z,100689.84
2024-05-09T22:33:06.713Z,100686.81
2024-05-09T22:35:36.364Z,100694.59
2024-05-09T22:38:03.097Z,100691.28
2024-05-09T22:40:42.215Z,100685.28
2024-05-09T22:43:14.525Z,100689.19
2024-05-09T22:45:44.194Z,100691.25
2024-05-09T22:48:11.172Z,100686.22
2024-05-09T22:50:40.695Z,100691.81
2024-05-09T22:53:07.504Z,100689.63
2024-05-09T22:55:36.906Z,100694.59
2024-05-09T22:58:03.745Z,100691.28
2024-05-09T23:00:33.434Z,100694.22
2024-05-09T23:03:00.841Z,100693.44
2024-05-09T23:05:30.895Z,100684.47
2024-05-09T23:07:58.054Z,100686.19
2024-05-09T23:10:32.409Z,100689.59
2024-05-09T23:13:03.663Z,100693.00
2024-05-09T23:15:33.493Z,100685.94
2024-05-09T23:18:00.498Z,100692.16
2024-05-09T23:20:36.877Z,100687.91
2024-05-09T23:23:06.048Z,100688.97
2024-05-09T23:25:35.422Z,100687.38
2024-05-09T23:28:02.764Z,100692.09
2024-05-09T23:30:37.887Z,100681.78
2024-05-09T23:33:07.251Z,100677.41
2024-05-09T23:35:36.831Z,100682.00
2024-05-09T23:38:03.533Z,100674.94
2024-05-09T23:43:02.668Z,100676.88
2024-05-09T23:45:32.086Z,100676.16
2024-05-09T23:47:58.957Z,100675.63
2024-05-09T23:50:34.150Z,100669.06
2024-05-09T23:53:04.089Z,100671.44
2024-05-09T23:55:33.900Z,100668.28
2024-05-09T23:58:00.905Z,100665.09
